Grover, Colorado
Current Conditions -  °F | °C
As of 5:35 PM on Wednesday 22 Oct 2014 (Local Time) from K82V Reporting Station
Overcast Overcast  
Wind Chill: 55°   Ceiling: 8500
Heat Index: 55°   Visibility: 10mi
Dew Point: 39°   Wind: 0mph
Humidity: 54%   Direction: NA
Pressure: 30.09"   Gusts: NA
Location:  40.87°N, 104.23°W
Report Text: K82V 222335Z AUTO 00000KT 10SM BKN085 OVC110 13/04 A3009 RMK AO2
Loading
Personal Weather Stations






























Interactive Weather Map
Tropical Storm Tracking
New forecast layout! Learn more

10-Day Weather Forecast

Advertisements
Track Severe Weather on mobile